createdAt,value
2022-12-15T01:34:41.070Z,4.80
2022-12-15T01:37:07.966Z,4.80
2022-12-15T01:39:53.550Z,4.70
2022-12-15T01:42:20.432Z,4.60
2022-12-15T01:44:51.413Z,4.60
2022-12-15T01:47:22.882Z,4.60
2022-12-15T01:49:51.550Z,4.60
2022-12-15T01:52:18.816Z,4.60
2022-12-15T01:54:55.552Z,4.70
2022-12-15T01:57:27.308Z,4.70
2022-12-15T01:59:57.998Z,4.70
2022-12-15T02:02:33.306Z,4.60
2022-12-15T02:05:04.792Z,4.60
2022-12-15T02:07:31.745Z,4.60
2022-12-15T02:10:01.873Z,4.60
2022-12-15T02:12:41.009Z,4.70
2022-12-15T02:15:45.342Z,4.70
2022-12-15T02:18:40.192Z,4.70
2022-12-15T02:21:29.658Z,4.80
2022-12-15T02:24:08.227Z,4.90
2022-12-15T02:26:59.511Z,4.90
2022-12-15T02:29:32.138Z,5.00
2022-12-15T02:32:08.541Z,5.00
2022-12-15T02:34:41.478Z,5.00
2022-12-15T02:37:26.453Z,5.00
2022-12-15T02:39:53.427Z,5.00
2022-12-15T02:42:21.599Z,5.10
2022-12-15T02:44:57.431Z,5.10
2022-12-15T02:47:48.705Z,5.00
2022-12-15T02:50:39.387Z,5.10
2022-12-15T02:53:18.267Z,5.10
2022-12-15T02:56:05.620Z,5.20
2022-12-15T02:59:03.291Z,5.10
2022-12-15T03:01:35.391Z,5.10
2022-12-15T03:04:05.158Z,5.00
2022-12-15T03:06:32.098Z,5.00
2022-12-15T03:08:59.057Z,5.00
2022-12-15T03:11:26.527Z,4.90
2022-12-15T03:13:54.377Z,4.80
2022-12-15T03:16:21.878Z,4.90
2022-12-15T03:18:48.795Z,4.90
2022-12-15T03:21:15.835Z,4.80
2022-12-15T03:23:42.796Z,4.80
2022-12-15T03:26:09.819Z,4.80
2022-12-15T03:28:36.796Z,4.80
2022-12-15T03:31:03.896Z,4.80
2022-12-15T03:33:34.242Z,4.80
2022-12-15T03:36:01.416Z,4.70
2022-12-15T03:38:28.402Z,4.80
2022-12-15T03:40:55.308Z,4.70
2022-12-15T03:43:22.614Z,4.60
2022-12-15T03:45:50.008Z,4.60
2022-12-15T03:48:17.147Z,4.60
2022-12-15T03:50:44.585Z,4.60
2022-12-15T03:53:11.828Z,4.60
2022-12-15T03:55:38.770Z,4.60
2022-12-15T03:58:05.655Z,4.50
2022-12-15T04:00:33.044Z,4.60
2022-12-15T04:02:59.997Z,4.60
2022-12-15T04:05:29.923Z,4.60
2022-12-15T04:07:58.579Z,4.60
2022-12-15T04:10:33.991Z,4.60
2022-12-15T04:13:12.335Z,4.70
2022-12-15T04:15:40.771Z,4.70
2022-12-15T04:18:10.829Z,4.80
2022-12-15T04:20:39.053Z,4.80
2022-12-15T04:23:09.265Z,4.80
2022-12-15T04:25:55.859Z,4.80
2022-12-15T04:28:41.753Z,4.80
2022-12-15T04:31:39.559Z,4.80
2022-12-15T04:34:30.846Z,4.70
2022-12-15T04:37:16.837Z,4.70
2022-12-15T04:40:07.953Z,4.70
2022-12-15T04:42:55.367Z,4.80
2022-12-15T04:45:43.955Z,4.80
2022-12-15T04:48:29.877Z,4.80
2022-12-15T04:51:15.420Z,4.70
2022-12-15T04:54:02.592Z,4.70
2022-12-15T04:56:50.093Z,4.70
2022-12-15T04:59:36.325Z,4.80
2022-12-15T05:02:21.883Z,4.90
2022-12-15T05:05:07.522Z,4.90
2022-12-15T05:07:53.164Z,4.90
2022-12-15T05:10:38.639Z,4.90
2022-12-15T05:13:27.895Z,4.80
2022-12-15T05:16:13.657Z,4.80
2022-12-15T05:18:59.330Z,4.80
2022-12-15T05:21:44.804Z,4.90
2022-12-15T05:24:30.350Z,4.90
2022-12-15T05:27:15.844Z,4.90
2022-12-15T05:30:01.409Z,4.90
2022-12-15T05:32:28.307Z,4.90
2022-12-15T05:34:55.149Z,5.00
2022-12-15T05:37:21.990Z,5.00
2022-12-15T05:39:49.619Z,4.90
2022-12-15T05:42:17.175Z,5.00
2022-12-15T05:44:44.019Z,5.00
2022-12-15T05:47:11.942Z,4.90
2022-12-15T05:49:39.768Z,4.90
2022-12-15T05:52:06.631Z,5.00
2022-12-15T05:54:34.214Z,5.10
2022-12-15T05:57:01.180Z,5.20
2022-12-15T05:59:28.136Z,5.20
2022-12-15T06:01:55.175Z,5.20
2022-12-15T06:04:22.859Z,5.10
2022-12-15T06:06:49.791Z,5.10
2022-12-15T06:09:17.036Z,5.20
2022-12-15T06:11:44.894Z,5.20
2022-12-15T06:14:11.755Z,5.20
2022-12-15T06:16:50.274Z,5.20
2022-12-15T06:19:17.764Z,5.20
2022-12-15T06:21:44.908Z,5.20
2022-12-15T06:24:11.827Z,5.20
2022-12-15T06:26:40.113Z,5.30
2022-12-15T06:29:10.831Z,5.30
2022-12-15T06:31:39.417Z,5.30
2022-12-15T06:34:14.794Z,5.30
2022-12-15T06:36:42.199Z,5.20
2022-12-15T06:39:12.441Z,5.20
2022-12-15T06:41:39.755Z,5.10
2022-12-15T06:44:07.048Z,5.10
2022-12-15T06:46:37.297Z,5.20
2022-12-15T06:49:04.816Z,5.20
2022-12-15T06:51:33.019Z,5.30
2022-12-15T06:54:00.254Z,5.30
2022-12-15T06:56:34.021Z,5.30
2022-12-15T06:59:03.790Z,5.30
2022-12-15T07:01:31.258Z,5.30
2022-12-15T07:04:03.333Z,5.30
2022-12-15T07:06:37.872Z,5.40
2022-12-15T07:09:08.221Z,5.30
2022-12-15T07:11:36.150Z,5.40
2022-12-15T07:14:05.030Z,5.50
2022-12-15T07:16:32.200Z,5.50
2022-12-15T07:18:59.529Z,5.50
2022-12-15T07:21:26.623Z,5.50
2022-12-15T07:23:55.790Z,5.60
2022-12-15T07:26:23.997Z,5.60
2022-12-15T07:28:51.064Z,5.60
2022-12-15T07:31:18.237Z,5.60
2022-12-15T07:33:45.560Z,5.60
2022-12-15T07:36:13.268Z,5.60
2022-12-15T07:38:40.469Z,5.60
2022-12-15T07:41:08.519Z,5.60
2022-12-15T07:43:36.612Z,5.60
2022-12-15T07:46:05.215Z,5.60
2022-12-15T07:48:32.998Z,5.60
2022-12-15T07:51:15.209Z,5.70
2022-12-15T07:53:44.393Z,5.70
2022-12-15T07:56:11.331Z,5.70
2022-12-15T07:58:39.362Z,5.70
2022-12-15T08:01:09.067Z,5.70
2022-12-15T08:03:37.537Z,5.70
2022-12-15T08:06:12.272Z,5.70
2022-12-15T08:08:40.862Z,5.60
2022-12-15T08:11:13.657Z,5.60
2022-12-15T08:16:29.498Z,5.60
2022-12-15T08:18:59.564Z,5.70
2022-12-15T08:21:26.426Z,5.60
2022-12-15T08:23:54.241Z,5.70
2022-12-15T08:26:25.259Z,5.70
2022-12-15T08:29:11.841Z,5.60
2022-12-15T08:31:45.206Z,5.60
2022-12-15T08:34:12.344Z,5.60
2022-12-15T08:36:47.866Z,5.60
2022-12-15T08:39:14.837Z,5.60
2022-12-15T08:41:41.828Z,5.60
2022-12-15T08:44:08.875Z,5.60
2022-12-15T08:46:36.262Z,5.60
2022-12-15T08:49:04.125Z,5.60
2022-12-15T08:51:32.549Z,5.60
2022-12-15T08:54:00.569Z,5.60
2022-12-15T08:56:28.964Z,5.50
2022-12-15T08:58:58.995Z,5.50
2022-12-15T09:01:27.674Z,5.40
2022-12-15T09:03:56.669Z,5.40
2022-12-15T09:06:29.536Z,5.30
2022-12-15T09:08:57.945Z,5.20
2022-12-15T09:11:25.721Z,5.10
2022-12-15T09:13:52.997Z,5.20
2022-12-15T09:16:21.232Z,5.20
2022-12-15T09:18:53.261Z,5.20
2022-12-15T09:21:26.457Z,5.20
2022-12-15T09:23:56.001Z,5.20
2022-12-15T09:26:23.940Z,5.20
2022-12-15T09:28:51.693Z,5.20
2022-12-15T09:31:22.331Z,5.20
2022-12-15T09:33:51.417Z,5.20
2022-12-15T09:36:18.998Z,5.20
2022-12-15T09:38:46.341Z,5.20
2022-12-15T09:41:28.076Z,5.30
2022-12-15T09:44:00.605Z,5.30
2022-12-15T09:47:05.948Z,5.30
2022-12-15T09:50:10.332Z,5.30
2022-12-15T09:52:49.490Z,5.40
2022-12-15T09:55:31.307Z,5.40
2022-12-15T09:58:07.494Z,5.40
2022-12-15T10:00:45.641Z,5.50
2022-12-15T10:03:46.931Z,5.50
2022-12-15T10:06:33.800Z,5.50
2022-12-15T10:09:27.575Z,5.50
2022-12-15T10:12:05.498Z,5.50
2022-12-15T10:14:42.374Z,5.50
2022-12-15T10:17:19.684Z,5.50
2022-12-15T10:19:50.303Z,5.50
2022-12-15T10:22:30.467Z,5.60
2022-12-15T10:25:10.740Z,5.60
2022-12-15T10:27:58.405Z,5.60
2022-12-15T10:30:25.758Z,5.60
2022-12-15T10:32:55.907Z,5.60
2022-12-15T10:35:29.187Z,5.60
2022-12-15T10:38:03.650Z,5.60
2022-12-15T10:40:53.189Z,5.60
2022-12-15T10:43:28.498Z,5.50
2022-12-15T10:46:07.512Z,5.50
2022-12-15T10:48:36.116Z,5.50
2022-12-15T10:51:22.728Z,5.50
2022-12-15T10:53:51.910Z,5.50
2022-12-15T10:56:32.297Z,5.50
2022-12-15T10:59:21.989Z,5.60
2022-12-15T11:01:49.489Z,5.60
2022-12-15T11:04:36.420Z,5.60
2022-12-15T11:07:04.456Z,5.60
2022-12-15T11:09:35.658Z,5.60
2022-12-15T11:12:34.778Z,5.70
2022-12-15T11:15:01.831Z,5.70
2022-12-15T11:17:40.656Z,5.80
2022-12-15T11:20:18.372Z,6.00
2022-12-15T11:23:01.859Z,6.10
2022-12-15T11:25:35.424Z,6.30
2022-12-15T11:28:07.000Z,6.30
2022-12-15T11:30:43.968Z,6.40
2022-12-15T11:33:12.435Z,6.40
2022-12-15T11:35:39.289Z,6.50
2022-12-15T11:38:57.520Z,6.60
2022-12-15T11:41:27.409Z,6.80
2022-12-15T11:44:14.499Z,7.20
2022-12-15T11:47:00.798Z,7.20
2022-12-15T11:50:11.297Z,7.20
2022-12-15T11:52:58.533Z,7.40
2022-12-15T11:55:41.292Z,7.30
2022-12-15T11:58:27.335Z,7.20
2022-12-15T12:01:06.628Z,7.20
2022-12-15T12:03:39.785Z,7.10
2022-12-15T12:06:23.248Z,6.90
2022-12-15T12:09:15.939Z,6.90
2022-12-15T12:11:56.711Z,6.80
2022-12-15T12:14:42.484Z,6.40
2022-12-15T12:17:17.431Z,6.10
2022-12-15T12:19:55.005Z,6.20
2022-12-15T12:22:25.598Z,6.10
2022-12-15T12:25:17.570Z,6.00
2022-12-15T12:27:56.164Z,6.00
2022-12-15T12:30:26.514Z,5.90
2022-12-15T12:33:19.045Z,5.90
2022-12-15T12:35:50.803Z,5.80
2022-12-15T12:38:25.348Z,6.10
2022-12-15T12:41:16.195Z,6.10
2022-12-15T12:46:50.533Z,5.50
2022-12-15T12:49:57.036Z,5.30
2022-12-15T12:52:30.143Z,5.00
2022-12-15T12:55:14.882Z,5.00
2022-12-15T12:57:43.364Z,4.80
2022-12-15T13:00:26.913Z,4.90
2022-12-15T13:03:12.454Z,5.00
2022-12-15T13:05:41.637Z,5.30
2022-12-15T13:08:09.135Z,5.20
2022-12-15T13:10:44.372Z,5.30
2022-12-15T13:13:27.545Z,4.90
2022-12-15T13:16:19.779Z,4.70
2022-12-15T13:19:07.064Z,4.70
2022-12-15T13:21:43.536Z,4.90
2022-12-15T13:24:25.354Z,5.40
2022-12-15T13:26:53.035Z,5.60
2022-12-15T13:29:25.377Z,5.50
2022-12-15T13:31:54.075Z,5.60
2022-12-15T13:34:23.975Z,5.90
2022-12-15T13:39:56.702Z,6.30
2022-12-15T13:42:41.508Z,6.60
2022-12-15T13:45:25.882Z,6.80
2022-12-15T13:47:56.199Z,7.10
2022-12-15T13:50:44.168Z,7.20
2022-12-15T13:53:22.342Z,7.10
2022-12-15T13:56:04.397Z,7.00
2022-12-15T13:58:39.754Z,6.50
2022-12-15T14:01:36.388Z,6.40
2022-12-15T14:04:16.807Z,6.30
2022-12-15T14:07:00.268Z,6.10
2022-12-15T14:09:34.299Z,6.30
2022-12-15T14:12:08.531Z,6.40
2022-12-15T14:14:42.913Z,6.40
2022-12-15T14:17:15.607Z,6.30
2022-12-15T14:19:51.182Z,6.30
2022-12-15T14:22:30.508Z,6.20
2022-12-15T14:25:15.383Z,5.70
2022-12-15T14:27:42.547Z,5.30
2022-12-15T14:30:30.415Z,4.90
2022-12-15T14:33:16.139Z,4.70
2022-12-15T14:35:49.486Z,4.90
2022-12-15T14:38:22.342Z,5.00
2022-12-15T14:40:51.962Z,4.80
2022-12-15T14:43:30.932Z,4.60
2022-12-15T14:46:08.929Z,4.40
2022-12-15T14:48:41.518Z,4.20
2022-12-15T14:51:13.242Z,4.10
2022-12-15T14:53:43.671Z,4.00
2022-12-15T14:56:32.821Z,3.90
2022-12-15T14:59:04.195Z,3.80
2022-12-15T15:01:40.865Z,3.80
2022-12-15T15:03:11.323Z,6.30
2022-12-15T15:03:11.589Z,5.90
2022-12-15T15:04:32.610Z,3.70
2022-12-15T15:07:06.285Z,3.60
2022-12-15T15:09:40.893Z,3.50
2022-12-15T15:12:20.414Z,3.40
2022-12-15T15:15:01.095Z,3.50
2022-12-15T15:17:44.818Z,3.50
2022-12-15T15:20:21.718Z,3.50
2022-12-15T15:23:09.936Z,3.40
2022-12-15T15:25:54.004Z,3.40
2022-12-15T15:28:23.728Z,3.40
2022-12-15T15:30:56.863Z,3.30
2022-12-15T15:33:25.835Z,3.30
2022-12-15T15:35:57.048Z,3.20
2022-12-15T15:38:27.527Z,3.20
2022-12-15T15:41:03.370Z,3.20
2022-12-15T15:43:30.278Z,3.20
2022-12-15T15:46:07.376Z,3.20
2022-12-15T15:49:03.558Z,3.20
2022-12-15T15:51:32.160Z,3.10
2022-12-15T15:54:05.769Z,3.00
2022-12-15T15:56:32.651Z,2.80
2022-12-15T15:59:02.773Z,2.90
2022-12-15T16:01:29.787Z,2.80
2022-12-15T16:03:56.822Z,2.80
2022-12-15T16:06:24.280Z,2.70
2022-12-15T16:08:53.971Z,2.70
2022-12-15T16:11:22.743Z,2.70
2022-12-15T16:13:49.719Z,2.60
2022-12-15T16:16:23.223Z,2.60
2022-12-15T16:18:50.177Z,2.50
2022-12-15T16:21:19.787Z,2.50
2022-12-15T16:23:48.623Z,2.40
2022-12-15T16:26:19.719Z,2.40
2022-12-15T16:28:49.207Z,2.30
2022-12-15T16:31:32.964Z,2.30
2022-12-15T16:34:05.093Z,2.30
2022-12-15T16:36:32.606Z,2.20
2022-12-15T16:38:59.518Z,2.20
2022-12-15T16:41:27.782Z,2.20
2022-12-15T16:43:54.797Z,2.20
2022-12-15T16:46:21.842Z,2.10
2022-12-15T16:48:49.159Z,2.20
2022-12-15T16:51:37.437Z,2.10
2022-12-15T16:54:04.927Z,2.10
2022-12-15T16:56:31.932Z,2.10
2022-12-15T16:59:30.914Z,2.10
2022-12-15T17:01:45.776Z,2.10
2022-12-15T17:04:14.026Z,2.00
2022-12-15T17:06:40.979Z,2.00
2022-12-15T17:09:12.891Z,1.90
2022-12-15T17:11:39.923Z,1.90
2022-12-15T17:14:07.602Z,1.90
2022-12-15T17:16:34.554Z,1.80
2022-12-15T17:19:01.660Z,1.70
2022-12-15T17:21:51.873Z,1.70
2022-12-15T17:24:20.502Z,1.50
2022-12-15T17:26:47.804Z,1.40
2022-12-15T17:29:18.489Z,1.30
2022-12-15T17:31:45.791Z,1.20
2022-12-15T17:34:18.698Z,1.20
2022-12-15T17:36:45.603Z,1.10
2022-12-15T17:39:14.514Z,1.00
2022-12-15T17:41:59.423Z,1.10
2022-12-15T17:44:34.168Z,1.10
2022-12-15T17:47:02.244Z,1.10
2022-12-15T17:49:34.956Z,1.20
2022-12-15T17:52:06.698Z,1.20
2022-12-15T17:54:34.271Z,1.20
2022-12-15T17:57:01.476Z,1.30
2022-12-15T17:59:28.474Z,1.40
2022-12-15T18:01:57.272Z,1.40
2022-12-15T18:04:24.487Z,1.40
2022-12-15T18:06:56.616Z,1.50
2022-12-15T18:09:28.753Z,1.50
2022-12-15T18:11:55.882Z,1.50
2022-12-15T18:14:23.070Z,1.40
2022-12-15T18:16:50.186Z,1.40
2022-12-15T18:19:17.297Z,1.50
2022-12-15T18:21:44.308Z,1.50
2022-12-15T18:24:17.252Z,1.50
2022-12-15T18:26:44.595Z,1.50
2022-12-15T18:29:18.173Z,1.50
2022-12-15T18:31:47.250Z,1.40
2022-12-15T18:34:18.214Z,1.40
2022-12-15T18:36:46.188Z,1.30
2022-12-15T18:39:23.929Z,1.30
2022-12-15T18:41:55.000Z,1.30
2022-12-15T18:44:23.256Z,1.20
2022-12-15T18:46:50.855Z,1.20
2022-12-15T18:49:19.551Z,1.20
2022-12-15T18:51:47.759Z,1.10
2022-12-15T18:54:21.148Z,1.10
2022-12-15T18:56:48.752Z,1.10
2022-12-15T18:59:17.717Z,1.10
2022-12-15T19:01:46.575Z,1.10
2022-12-15T19:04:14.039Z,1.10
2022-12-15T19:06:41.578Z,1.10
2022-12-15T19:09:15.814Z,1.20
2022-12-15T19:12:06.480Z,1.10
2022-12-15T19:14:43.173Z,1.10
2022-12-15T19:17:39.484Z,1.10
2022-12-15T19:20:37.783Z,1.10
2022-12-15T19:23:05.473Z,1.00
2022-12-15T19:25:33.138Z,1.00
2022-12-15T19:28:01.516Z,1.00
2022-12-15T19:30:38.284Z,1.00
2022-12-15T19:33:07.768Z,1.00
2022-12-15T19:35:36.044Z,1.00
2022-12-15T19:38:04.457Z,1.00
2022-12-15T19:40:33.334Z,1.00
2022-12-15T19:43:01.017Z,0.90
2022-12-15T19:45:30.486Z,0.90
2022-12-15T19:47:58.184Z,0.80
2022-12-15T19:50:31.058Z,0.90
2022-12-15T19:53:03.827Z,0.90
2022-12-15T19:55:33.806Z,0.90
2022-12-15T19:58:15.098Z,0.90
2022-12-15T20:00:42.112Z,0.90
2022-12-15T20:03:09.228Z,0.90
2022-12-15T20:05:36.977Z,0.90
2022-12-15T20:08:04.197Z,0.90
2022-12-15T20:10:32.493Z,0.80
2022-12-15T20:13:01.211Z,0.90
2022-12-15T20:15:28.329Z,0.90
2022-12-15T20:17:57.221Z,0.80
2022-12-15T20:20:27.226Z,0.80
2022-12-15T20:22:57.119Z,0.80
2022-12-15T20:25:27.522Z,0.70
2022-12-15T20:27:54.831Z,0.70
2022-12-15T20:30:32.595Z,0.60
2022-12-15T20:33:00.917Z,0.60
2022-12-15T20:35:28.625Z,0.60
2022-12-15T20:37:55.670Z,0.70
2022-12-15T20:40:26.339Z,0.70
2022-12-15T20:42:54.856Z,0.70
2022-12-15T20:45:25.271Z,0.70
2022-12-15T20:47:54.921Z,0.70
2022-12-15T20:50:37.783Z,0.70
2022-12-15T20:53:06.180Z,0.70
2022-12-15T20:55:33.148Z,0.70
2022-12-15T20:58:00.462Z,0.70
2022-12-15T21:00:27.426Z,0.60
2022-12-15T21:02:55.306Z,0.60
2022-12-15T21:05:25.838Z,0.60
2022-12-15T21:07:53.122Z,0.60
2022-12-15T21:10:21.385Z,0.60
2022-12-15T21:12:51.082Z,0.60
2022-12-15T21:15:21.480Z,0.50
2022-12-15T21:18:19.743Z,0.50
2022-12-15T21:20:45.319Z,0.50
2022-12-15T21:23:22.650Z,0.40
2022-12-15T21:25:50.024Z,0.30
2022-12-15T21:28:17.681Z,0.40
2022-12-15T21:30:45.054Z,0.30
2022-12-15T21:33:12.361Z,0.30
2022-12-15T21:35:41.178Z,0.30
2022-12-15T21:38:27.078Z,0.30
2022-12-15T21:40:59.709Z,0.30
2022-12-15T21:43:30.694Z,0.30
2022-12-15T21:45:58.738Z,0.40
2022-12-15T21:48:44.228Z,0.40
2022-12-15T21:51:16.632Z,0.40
2022-12-15T21:53:45.921Z,0.40
2022-12-15T21:56:20.987Z,0.40
2022-12-15T21:58:51.509Z,0.40
2022-12-15T22:01:30.715Z,0.40
2022-12-15T22:04:01.887Z,0.40
2022-12-15T22:06:30.330Z,0.40
2022-12-15T22:09:01.682Z,0.30
2022-12-15T22:11:31.185Z,0.30
2022-12-15T22:14:01.723Z,0.20
2022-12-15T22:16:30.017Z,0.10
2022-12-15T22:18:58.608Z,0.00
2022-12-15T22:21:25.946Z,0.00
2022-12-15T22:23:53.710Z,-0.20
2022-12-15T22:26:24.610Z,-0.20
2022-12-15T22:28:52.267Z,-0.30
2022-12-15T22:31:21.904Z,-0.30
2022-12-15T22:33:49.031Z,-0.30
2022-12-15T22:36:15.957Z,-0.30
2022-12-15T22:38:43.613Z,-0.30
2022-12-15T22:41:22.407Z,-0.30
2022-12-15T22:43:55.685Z,-0.20
2022-12-15T22:46:25.067Z,-0.10
2022-12-15T22:48:52.977Z,0.00
2022-12-15T22:51:21.853Z,0.00
2022-12-15T22:53:48.893Z,0.00
2022-12-15T22:56:27.271Z,-0.10
2022-12-15T22:59:01.231Z,-0.10
2022-12-15T23:01:28.825Z,-0.10
2022-12-15T23:03:56.148Z,-0.10
2022-12-15T23:06:23.770Z,-0.20
2022-12-15T23:08:55.774Z,-0.20
2022-12-15T23:11:39.813Z,-0.20
2022-12-15T23:14:10.426Z,-0.20
2022-12-15T23:16:38.089Z,-0.20
2022-12-15T23:19:08.376Z,-0.20
2022-12-15T23:21:36.740Z,-0.20
2022-12-15T23:24:03.782Z,-0.30
2022-12-15T23:26:31.076Z,-0.30
2022-12-15T23:28:57.996Z,-0.40
2022-12-15T23:31:25.143Z,-0.30
2022-12-15T23:33:52.394Z,-0.40
2022-12-15T23:36:20.012Z,-0.40
2022-12-15T23:38:47.270Z,-0.40
2022-12-15T23:41:18.073Z,-0.40
2022-12-15T23:43:45.362Z,-0.50
2022-12-15T23:46:12.975Z,-0.50
2022-12-15T23:48:43.310Z,-0.50
2022-12-15T23:51:15.857Z,-0.60
2022-12-15T23:53:44.645Z,-0.60
2022-12-15T23:56:14.294Z,-0.60
2022-12-15T23:58:42.794Z,-0.70
